createdAt,value
2023-02-07T00:02:21.184Z,102464.09
2023-02-07T00:05:39.753Z,102456.59
2023-02-07T00:08:52.105Z,102459.28
2023-02-07T00:12:03.737Z,102448.71
2023-02-07T00:15:25.505Z,102460.68
2023-02-07T00:18:18.047Z,102454.30
2023-02-07T00:21:47.201Z,102462.39
2023-02-07T00:25:04.969Z,102459.95
2023-02-07T00:27:54.135Z,102468.61
2023-02-07T00:31:23.670Z,102473.29
2023-02-07T00:34:43.421Z,102467.38
2023-02-07T00:38:12.635Z,102470.45
2023-02-07T00:41:41.979Z,102464.75
2023-02-07T00:45:10.913Z,102471.29
2023-02-07T00:48:32.622Z,102467.34
2023-02-07T00:52:01.459Z,102470.60
2023-02-07T00:55:12.887Z,102468.75
2023-02-07T00:58:31.712Z,102458.88
2023-02-07T01:02:00.777Z,102459.75
2023-02-07T01:05:30.138Z,102456.66
2023-02-07T01:08:59.434Z,102436.94
2023-02-07T01:12:28.663Z,102427.64
2023-02-07T01:15:57.980Z,102419.52
2023-02-07T01:19:27.146Z,102412.13
2023-02-07T01:22:56.190Z,102406.23
2023-02-07T01:26:15.476Z,102414.36
2023-02-07T01:29:45.234Z,102406.13
2023-02-07T01:33:14.592Z,102404.56
2023-02-07T01:35:52.097Z,102403.48
2023-02-07T01:39:00.862Z,102406.20
2023-02-07T01:42:30.202Z,102408.79
2023-02-07T01:45:42.986Z,102416.13
2023-02-07T01:49:15.588Z,102412.77
2023-02-07T01:52:35.842Z,102398.66
2023-02-07T01:55:50.472Z,102394.77
2023-02-07T01:59:19.794Z,102387.16
2023-02-07T02:02:48.951Z,102380.83
2023-02-07T02:06:08.771Z,102388.60
2023-02-07T02:09:37.824Z,102391.55
2023-02-07T02:13:13.065Z,102396.14
2023-02-07T02:16:47.790Z,102402.42
2023-02-07T02:19:57.796Z,102402.45
2023-02-07T02:23:50.356Z,102403.23
2023-02-07T02:27:25.129Z,102409.24
2023-02-07T02:30:43.675Z,102414.44
2023-02-07T02:34:17.122Z,102406.89
2023-02-07T02:37:58.477Z,102407.95
2023-02-07T02:41:23.727Z,102405.17
2023-02-07T02:44:50.300Z,102387.16
2023-02-07T02:48:19.619Z,102386.02
2023-02-07T02:51:49.295Z,102394.39
2023-02-07T02:55:27.648Z,102401.52
2023-02-07T02:58:39.713Z,102401.45
2023-02-07T03:01:30.775Z,102400.85
2023-02-07T03:05:13.547Z,102387.30
2023-02-07T03:09:00.195Z,102392.88
2023-02-07T03:12:22.047Z,102387.80
2023-02-07T03:16:09.815Z,102393.24
2023-02-07T03:19:26.427Z,102395.13
2023-02-07T03:22:23.216Z,102382.72
2023-02-07T03:25:52.665Z,102366.39
2023-02-07T03:29:21.994Z,102365.50
2023-02-07T03:32:34.087Z,102358.23
2023-02-07T03:35:48.691Z,102360.46
2023-02-07T03:39:17.405Z,102376.77
2023-02-07T03:42:46.587Z,102375.54
2023-02-07T03:45:29.142Z,102374.36
2023-02-07T03:48:37.847Z,102370.84
2023-02-07T03:52:07.519Z,102368.36
2023-02-07T03:55:26.294Z,102372.27
2023-02-07T03:58:14.016Z,102383.73
2023-02-07T04:01:36.502Z,102382.52
2023-02-07T04:05:05.985Z,102382.05
2023-02-07T04:08:08.084Z,102379.23
2023-02-07T04:11:43.355Z,102381.56
2023-02-07T04:14:52.657Z,102378.61
2023-02-07T04:18:03.871Z,102384.34
2023-02-07T04:21:32.566Z,102388.02
2023-02-07T04:24:33.565Z,102383.45
2023-02-07T04:28:03.050Z,102383.98
2023-02-07T04:31:32.361Z,102381.71
2023-02-07T04:34:12.748Z,102372.70
2023-02-07T04:37:01.214Z,102378.41
2023-02-07T04:39:43.131Z,102379.13
2023-02-07T04:43:12.265Z,102379.66
2023-02-07T04:46:21.479Z,102376.66
2023-02-07T04:49:53.514Z,102373.60
2023-02-07T04:52:22.308Z,102362.14
2023-02-07T04:55:16.732Z,102357.75
2023-02-07T04:57:54.947Z,102363.38
2023-02-07T05:01:03.979Z,102360.27
2023-02-07T05:03:45.483Z,102362.31
2023-02-07T05:06:33.503Z,102353.92
2023-02-07T05:09:17.912Z,102349.02
2023-02-07T05:12:00.898Z,102350.65
2023-02-07T05:14:53.220Z,102350.91
2023-02-07T05:17:35.888Z,102353.17
2023-02-07T05:20:37.170Z,102352.26
2023-02-07T05:23:39.501Z,102356.17
2023-02-07T05:27:08.708Z,102363.72
2023-02-07T05:30:01.566Z,102357.52
2023-02-07T05:33:02.054Z,102368.63
2023-02-07T05:36:12.730Z,102370.92
2023-02-07T05:39:41.687Z,102363.21
2023-02-07T05:42:13.538Z,102365.73
2023-02-07T05:44:48.349Z,102367.85
2023-02-07T05:47:20.492Z,102370.73
2023-02-07T05:50:40.369Z,102367.40
2023-02-07T05:53:30.045Z,102360.15
2023-02-07T05:56:24.485Z,102373.03
2023-02-07T05:59:53.908Z,102374.15
2023-02-07T06:03:23.255Z,102373.13
2023-02-07T06:06:25.189Z,102374.96
2023-02-07T06:09:34.296Z,102375.19
2023-02-07T06:12:10.445Z,102370.02
2023-02-07T06:14:38.528Z,102365.91
2023-02-07T06:17:26.536Z,102360.28
2023-02-07T06:20:25.466Z,102357.73
2023-02-07T06:23:26.843Z,102357.44
2023-02-07T06:26:48.821Z,102351.12
2023-02-07T06:29:58.374Z,102353.34
2023-02-07T06:32:27.605Z,102354.61
2023-02-07T06:35:49.715Z,102346.88
2023-02-07T06:38:42.466Z,102344.30
2023-02-07T06:41:17.966Z,102338.67
2023-02-07T06:44:07.158Z,102333.84
2023-02-07T06:46:56.509Z,102334.55
2023-02-07T06:49:25.771Z,102336.40
2023-02-07T06:51:57.557Z,102329.39
2023-02-07T06:55:20.892Z,102330.91
2023-02-07T06:58:13.480Z,102325.07
2023-02-07T07:01:08.282Z,102320.96
2023-02-07T07:04:27.757Z,102314.63
2023-02-07T07:07:39.854Z,102305.99
2023-02-07T07:10:27.990Z,102300.96
2023-02-07T07:13:15.671Z,102298.30
2023-02-07T07:15:54.682Z,102300.55
2023-02-07T07:18:33.594Z,102299.58
2023-02-07T07:21:42.576Z,102302.58
2023-02-07T07:24:24.652Z,102299.28
2023-02-07T07:27:18.951Z,102297.41
2023-02-07T07:30:34.773Z,102299.65
2023-02-07T07:33:44.123Z,102301.70
2023-02-07T07:36:53.188Z,102299.12
2023-02-07T07:40:13.104Z,102290.30
2023-02-07T07:43:42.204Z,102280.98
2023-02-07T07:46:31.505Z,102277.17
2023-02-07T07:49:16.668Z,102274.44
2023-02-07T07:51:48.416Z,102264.50
2023-02-07T07:54:51.260Z,102269.23
2023-02-07T07:58:00.661Z,102269.56
2023-02-07T08:00:49.895Z,102262.08
2023-02-07T08:03:45.101Z,102251.04
2023-02-07T08:06:34.348Z,102249.98
2023-02-07T08:09:43.738Z,102243.77
2023-02-07T08:12:14.434Z,102243.33
2023-02-07T08:15:06.579Z,102248.98
2023-02-07T08:18:01.701Z,102253.23
2023-02-07T08:20:50.474Z,102256.61
2023-02-07T08:23:42.475Z,102262.80
2023-02-07T08:26:31.513Z,102255.49
2023-02-07T08:29:52.073Z,102252.46
2023-02-07T08:32:27.413Z,102241.68
2023-02-07T08:35:06.513Z,102234.63
2023-02-07T08:38:27.902Z,102224.59
2023-02-07T08:41:57.042Z,102209.73
2023-02-07T08:45:26.402Z,102196.02
2023-02-07T08:48:48.886Z,102171.77
2023-02-07T08:52:18.360Z,102172.48
2023-02-07T08:55:50.027Z,102165.48
2023-02-07T08:58:42.313Z,102160.39
2023-02-07T09:02:11.405Z,102155.52
2023-02-07T09:05:40.839Z,102148.73
2023-02-07T09:09:09.966Z,102138.25
2023-02-07T09:12:39.716Z,102139.21
2023-02-07T09:15:29.478Z,102128.92
2023-02-07T09:18:07.978Z,102126.08
2023-02-07T09:20:47.231Z,102125.13
2023-02-07T09:23:56.152Z,102128.77
2023-02-07T09:26:36.387Z,102116.06
2023-02-07T09:29:16.717Z,102113.58
2023-02-07T09:32:36.633Z,102103.83
2023-02-07T09:36:06.976Z,102096.38
2023-02-07T09:39:36.180Z,102085.32
2023-02-07T09:43:14.117Z,102080.27
2023-02-07T09:46:43.524Z,102071.91
2023-02-07T09:49:45.039Z,102054.83
2023-02-07T09:53:24.106Z,102060.65
2023-02-07T09:56:54.196Z,102077.23
2023-02-07T10:00:26.308Z,102084.99
2023-02-07T10:03:33.056Z,102090.13
2023-02-07T10:07:08.147Z,102086.98
2023-02-07T10:09:47.763Z,102084.42
2023-02-07T10:12:22.433Z,102075.48
2023-02-07T10:15:19.774Z,102081.10
2023-02-07T10:18:39.845Z,102088.02
2023-02-07T10:22:21.030Z,102091.58
2023-02-07T10:25:52.984Z,102077.26
2023-02-07T10:29:43.361Z,102070.62
2023-02-07T10:33:15.420Z,102072.59
2023-02-07T10:36:44.836Z,102066.58
2023-02-07T10:40:19.435Z,102063.30
2023-02-07T10:43:48.374Z,102060.52
2023-02-07T10:47:17.275Z,102056.05
2023-02-07T10:50:47.218Z,102054.20
2023-02-07T10:54:28.507Z,102043.96
2023-02-07T10:57:02.498Z,102019.84
2023-02-07T11:00:15.286Z,102009.33
2023-02-07T11:03:40.580Z,102004.33
2023-02-07T11:06:45.177Z,102002.65
2023-02-07T11:10:19.401Z,101999.59
2023-02-07T11:13:38.154Z,102003.65
2023-02-07T11:16:31.933Z,102004.03
2023-02-07T11:19:37.032Z,101999.72
2023-02-07T11:23:12.705Z,101998.88
2023-02-07T11:26:03.050Z,101999.98
2023-02-07T11:29:35.474Z,102004.70
2023-02-07T11:33:04.595Z,102001.99
2023-02-07T11:36:42.802Z,102007.62
2023-02-07T11:40:12.070Z,102011.70
2023-02-07T11:43:41.235Z,102008.84
2023-02-07T11:47:13.307Z,102010.37
2023-02-07T11:50:42.419Z,102009.23
2023-02-07T11:54:17.998Z,102000.11
2023-02-07T11:57:47.375Z,101998.41
2023-02-07T12:01:19.609Z,101997.21
2023-02-07T12:04:22.125Z,101994.45
2023-02-07T12:07:28.114Z,101988.09
2023-02-07T12:10:12.567Z,101988.88
2023-02-07T12:13:55.185Z,101989.49
2023-02-07T12:17:06.669Z,101977.69
2023-02-07T12:20:40.319Z,101978.20
2023-02-07T12:24:09.706Z,101976.07
2023-02-07T12:27:39.235Z,101970.49
2023-02-07T12:30:50.836Z,101975.02
2023-02-07T12:34:17.482Z,101970.38
2023-02-07T12:37:55.559Z,101969.30
2023-02-07T12:41:16.577Z,101962.34
2023-02-07T12:44:57.279Z,101955.63
2023-02-07T12:48:29.578Z,101953.27
2023-02-07T12:51:44.981Z,101950.08
2023-02-07T12:55:17.025Z,101949.64
2023-02-07T12:58:58.257Z,101945.96
2023-02-07T13:02:25.606Z,101937.48
2023-02-07T13:05:53.125Z,101931.81
2023-02-07T13:09:25.512Z,101924.45
2023-02-07T13:12:54.570Z,101915.89
2023-02-07T13:16:35.659Z,101914.40
2023-02-07T13:20:10.955Z,101903.42
2023-02-07T13:23:36.505Z,101896.40
2023-02-07T13:26:38.158Z,101887.95
2023-02-07T13:29:19.303Z,101874.97
2023-02-07T13:32:49.994Z,101877.70
2023-02-07T13:36:00.457Z,101882.00
2023-02-07T13:38:53.030Z,101879.22
2023-02-07T13:41:44.981Z,101870.93
2023-02-07T13:44:47.131Z,101866.45
2023-02-07T13:48:03.030Z,101861.77
2023-02-07T13:51:38.225Z,101859.39
2023-02-07T13:54:51.257Z,101858.00
2023-02-07T13:58:37.030Z,101847.19
2023-02-07T14:02:11.777Z,101853.27
2023-02-07T14:05:50.399Z,101849.56
2023-02-07T14:09:19.715Z,101845.39
2023-02-07T14:12:57.248Z,101841.36
2023-02-07T14:15:39.841Z,101845.36
2023-02-07T14:19:24.652Z,101840.83
2023-02-07T14:22:56.713Z,101836.55
2023-02-07T14:26:21.132Z,101833.61
2023-02-07T14:29:44.686Z,101826.60
2023-02-07T14:33:26.641Z,101820.17
2023-02-07T14:36:46.910Z,101818.06
2023-02-07T14:39:46.171Z,101810.61
2023-02-07T14:43:15.272Z,101807.16
2023-02-07T14:46:53.836Z,101811.45
2023-02-07T14:50:32.470Z,101806.98
2023-02-07T14:53:51.230Z,101802.48
2023-02-07T14:56:49.919Z,101794.86
2023-02-07T15:00:06.081Z,101795.11
2023-02-07T15:03:04.161Z,101788.41
2023-02-07T15:05:41.297Z,101786.80
2023-02-07T15:08:34.329Z,101787.54
2023-02-07T15:12:26.568Z,101782.17
2023-02-07T15:15:56.327Z,101781.67
2023-02-07T15:19:19.717Z,101780.05
2023-02-07T15:22:49.474Z,101779.14
2023-02-07T15:26:18.758Z,101779.64
2023-02-07T15:29:47.904Z,101783.79
2023-02-07T15:33:17.122Z,101781.15
2023-02-07T15:36:28.719Z,101782.65
2023-02-07T15:40:00.422Z,101779.92
2023-02-07T15:43:35.896Z,101778.63
2023-02-07T15:46:17.531Z,101780.35
2023-02-07T15:49:55.568Z,101780.31
2023-02-07T15:53:36.344Z,101782.03
2023-02-07T15:57:09.106Z,101780.45
2023-02-07T16:00:38.356Z,101779.45
2023-02-07T16:03:20.142Z,101775.13
2023-02-07T16:06:52.273Z,101777.36
2023-02-07T16:09:48.414Z,101769.48
2023-02-07T16:13:23.499Z,101765.48
2023-02-07T16:16:25.993Z,101760.31
2023-02-07T16:19:45.511Z,101755.83
2023-02-07T16:22:17.967Z,101756.73
2023-02-07T16:25:04.125Z,101753.23
2023-02-07T16:27:34.997Z,101750.14
2023-02-07T16:30:15.795Z,101750.70
2023-02-07T16:32:45.027Z,101754.38
2023-02-07T16:35:48.280Z,101749.38
2023-02-07T16:39:16.966Z,101747.16
2023-02-07T16:42:13.830Z,101745.98
2023-02-07T16:45:42.982Z,101746.59
2023-02-07T16:49:13.910Z,101744.97
2023-02-07T16:52:22.727Z,101741.28
2023-02-07T16:55:51.703Z,101745.18
2023-02-07T16:59:23.338Z,101744.66
2023-02-07T17:02:55.512Z,101740.33
2023-02-07T17:06:24.711Z,101739.78
2023-02-07T17:09:57.022Z,101736.13
2023-02-07T17:13:26.181Z,101729.11
2023-02-07T17:16:55.446Z,101727.95
2023-02-07T17:20:24.574Z,101723.59
2023-02-07T17:24:24.008Z,101723.83
2023-02-07T17:27:43.183Z,101720.45
2023-02-07T17:31:14.586Z,101719.11
2023-02-07T17:34:43.699Z,101712.45
2023-02-07T17:38:12.823Z,101712.73
2023-02-07T17:41:31.797Z,101713.58
2023-02-07T17:45:01.089Z,101714.54
2023-02-07T17:48:30.151Z,101719.70
2023-02-07T17:51:59.643Z,101719.90
2023-02-07T17:55:28.636Z,101722.36
2023-02-07T17:58:58.075Z,101723.45
2023-02-07T18:02:07.389Z,101704.42
2023-02-07T18:05:00.169Z,101700.95
2023-02-07T18:07:32.357Z,101696.09
2023-02-07T18:10:01.095Z,101691.38
2023-02-07T18:13:10.273Z,101683.60
2023-02-07T18:16:42.406Z,101677.02
2023-02-07T18:19:19.982Z,101684.57
2023-02-07T18:21:52.008Z,101687.56
2023-02-07T18:24:21.058Z,101690.92
2023-02-07T18:26:55.841Z,101687.66
2023-02-07T18:29:27.762Z,101695.98
2023-02-07T18:32:21.884Z,101697.88
2023-02-07T18:35:14.273Z,101698.96
2023-02-07T18:38:33.971Z,101699.91
2023-02-07T18:41:43.340Z,101704.91
2023-02-07T18:45:12.270Z,101710.73
2023-02-07T18:48:01.923Z,101713.25
2023-02-07T18:51:11.487Z,101716.11
2023-02-07T18:54:40.638Z,101714.77
2023-02-07T18:58:09.592Z,101709.67
2023-02-07T19:00:41.624Z,101709.70
2023-02-07T19:04:10.978Z,101710.83
2023-02-07T19:07:40.190Z,101708.84
2023-02-07T19:11:09.636Z,101703.53
2023-02-07T19:14:21.683Z,101702.67
2023-02-07T19:17:50.972Z,101698.80
2023-02-07T19:21:00.573Z,101689.18
2023-02-07T19:24:22.928Z,101690.61
2023-02-07T19:27:52.167Z,101670.12
2023-02-07T19:31:20.839Z,101668.25
2023-02-07T19:34:50.203Z,101664.66
2023-02-07T19:38:19.368Z,101653.90
2023-02-07T19:41:49.527Z,101666.06
2023-02-07T19:45:21.965Z,101663.79
2023-02-07T19:48:51.185Z,101678.21
2023-02-07T19:52:10.385Z,101681.43
2023-02-07T19:55:21.628Z,101673.67
2023-02-07T19:58:50.646Z,101671.76
2023-02-07T20:02:19.885Z,101677.78
2023-02-07T20:05:49.017Z,101666.96
2023-02-07T20:09:18.172Z,101666.80
2023-02-07T20:12:47.137Z,101654.15
2023-02-07T20:16:15.964Z,101658.48
2023-02-07T20:19:38.007Z,101666.24
2023-02-07T20:22:50.431Z,101656.32
2023-02-07T20:26:19.565Z,101660.34
2023-02-07T20:29:49.108Z,101665.35
2023-02-07T20:33:18.507Z,101653.83
2023-02-07T20:36:47.498Z,101648.26
2023-02-07T20:40:16.628Z,101639.73
2023-02-07T20:43:45.902Z,101633.84
2023-02-07T20:47:15.236Z,101646.39
2023-02-07T20:50:44.797Z,101646.88
2023-02-07T20:54:13.733Z,101649.40
2023-02-07T20:57:45.789Z,101652.80
2023-02-07T21:01:16.916Z,101663.73
2023-02-07T21:04:35.817Z,101661.13
2023-02-07T21:08:06.034Z,101663.91
2023-02-07T21:11:35.477Z,101666.09
2023-02-07T21:14:55.508Z,101669.29
2023-02-07T21:21:59.636Z,101675.79
2023-02-07T21:25:20.418Z,101681.64
2023-02-07T21:28:49.827Z,101694.70
2023-02-07T21:32:22.759Z,101696.80
2023-02-07T21:35:52.483Z,101689.66
2023-02-07T21:39:21.939Z,101698.84
2023-02-07T21:42:51.036Z,101697.63
2023-02-07T21:46:20.461Z,101704.34
2023-02-07T21:49:55.243Z,101698.92
2023-02-07T21:53:15.040Z,101702.59
2023-02-07T21:56:43.794Z,101703.98
2023-02-07T22:00:12.491Z,101701.08
2023-02-07T22:03:41.659Z,101701.55
2023-02-07T22:07:10.399Z,101710.93
2023-02-07T22:10:39.651Z,101706.09
2023-02-07T22:14:08.965Z,101697.98
2023-02-07T22:17:38.164Z,101691.13
2023-02-07T22:21:07.398Z,101684.98
2023-02-07T22:24:36.535Z,101684.23
2023-02-07T22:27:56.099Z,101682.34
2023-02-07T22:31:17.859Z,101675.08
2023-02-07T22:34:47.139Z,101671.45
2023-02-07T22:38:16.596Z,101675.14
2023-02-07T22:41:45.975Z,101676.27
2023-02-07T22:45:15.188Z,101670.56
2023-02-07T22:48:44.189Z,101665.04
2023-02-07T22:52:15.660Z,101670.14
2023-02-07T22:55:43.644Z,101678.45
2023-02-07T22:59:12.748Z,101669.79
2023-02-07T23:02:42.001Z,101657.48
2023-02-07T23:06:11.232Z,101669.23
2023-02-07T23:09:40.033Z,101681.50
2023-02-07T23:13:09.074Z,101682.69
2023-02-07T23:16:38.360Z,101674.94
2023-02-07T23:20:10.475Z,101680.19
2023-02-07T23:23:39.654Z,101691.73
2023-02-07T23:27:08.993Z,101699.57
2023-02-07T23:30:38.348Z,101707.41
2023-02-07T23:34:07.824Z,101704.52
2023-02-07T23:37:20.723Z,101705.21
2023-02-07T23:40:52.515Z,101706.86
2023-02-07T23:44:21.899Z,101703.35
2023-02-07T23:47:51.118Z,101693.28
2023-02-07T23:51:20.091Z,101702.34
2023-02-07T23:54:48.797Z,101703.87
2023-02-07T23:58:17.968Z,101713.48
